createdAt,value
2019-02-02T00:00:59.015Z,995.3
2019-02-02T00:02:08.445Z,995.29
2019-02-02T00:03:18.386Z,995.3
2019-02-02T00:04:27.800Z,995.36
2019-02-02T00:05:37.479Z,995.32
2019-02-02T00:06:47.145Z,995.33
2019-02-02T00:07:56.823Z,995.32
2019-02-02T00:09:06.513Z,995.33
2019-02-02T00:10:16.179Z,995.32
2019-02-02T00:11:25.846Z,995.37
2019-02-02T00:12:35.810Z,995.38
2019-02-02T00:13:45.229Z,995.44
2019-02-02T00:14:54.663Z,995.45
2019-02-02T00:16:04.339Z,995.4
2019-02-02T00:17:14.022Z,995.45
2019-02-02T00:18:23.694Z,995.4
2019-02-02T00:19:33.110Z,995.37
2019-02-02T00:20:42.287Z,995.35
2019-02-02T00:21:51.982Z,995.35
2019-02-02T00:23:01.653Z,995.33
2019-02-02T00:24:11.455Z,995.29
2019-02-02T00:25:21.292Z,995.3
2019-02-02T00:26:31.220Z,995.29
2019-02-02T00:27:41.766Z,995.35
2019-02-02T00:28:51.273Z,995.36
2019-02-02T00:30:00.954Z,995.41
2019-02-02T00:31:10.638Z,995.43
2019-02-02T00:32:20.318Z,995.48
2019-02-02T00:33:29.996Z,995.49
2019-02-02T00:34:39.665Z,995.48
2019-02-02T00:35:49.086Z,995.51
2019-02-02T00:36:59.196Z,995.52
2019-02-02T00:38:09.035Z,995.51
2019-02-02T00:39:18.712Z,995.49
2019-02-02T00:40:28.641Z,995.49
2019-02-02T00:41:38.118Z,995.46
2019-02-02T00:42:47.052Z,995.46
2019-02-02T00:43:56.974Z,995.51
2019-02-02T00:45:06.648Z,995.52
2019-02-02T00:46:16.315Z,995.57
2019-02-02T00:47:25.729Z,995.54
2019-02-02T00:48:35.648Z,995.52
2019-02-02T00:49:45.622Z,995.51
2019-02-02T00:50:55.551Z,995.47
2019-02-02T00:52:05.224Z,995.46
2019-02-02T00:53:15.030Z,995.47
2019-02-02T00:54:24.959Z,995.43
2019-02-02T00:55:34.378Z,995.43
2019-02-02T00:56:44.049Z,995.46
2019-02-02T00:57:54.074Z,995.47
2019-02-02T00:59:04.088Z,995.45
2019-02-02T01:00:13.761Z,995.44
2019-02-02T01:01:23.188Z,995.44
2019-02-02T01:02:32.876Z,995.42
2019-02-02T01:03:42.802Z,995.45
2019-02-02T01:04:51.734Z,995.47
2019-02-02T01:06:04.513Z,995.49
2019-02-02T01:07:14.626Z,995.5
2019-02-02T01:08:24.052Z,995.52
2019-02-02T01:09:33.734Z,995.52
2019-02-02T01:10:43.656Z,995.51
2019-02-02T01:11:53.576Z,995.5
2019-02-02T01:13:02.996Z,995.49
2019-02-02T01:14:12.924Z,995.45
2019-02-02T01:15:22.621Z,995.49
2019-02-02T01:16:32.540Z,995.44
2019-02-02T01:17:41.968Z,995.49
2019-02-02T01:18:51.903Z,995.52
2019-02-02T01:20:01.579Z,995.55
2019-02-02T01:21:11.255Z,995.5
2019-02-02T01:22:21.174Z,995.48
2019-02-02T01:23:30.859Z,995.46
2019-02-02T01:24:40.791Z,995.51
2019-02-02T01:25:50.476Z,995.5
2019-02-02T01:27:00.273Z,995.44
2019-02-02T01:28:09.948Z,995.52
2019-02-02T01:29:19.389Z,995.51
2019-02-02T01:30:29.332Z,995.5
2019-02-02T01:31:39.002Z,995.53
2019-02-02T01:32:48.930Z,995.56
2019-02-02T01:33:58.612Z,995.6
2019-02-02T01:35:08.089Z,995.56
2019-02-02T01:36:17.773Z,995.59
2019-02-02T01:37:27.755Z,995.58
2019-02-02T01:38:37.205Z,995.6
2019-02-02T01:39:47.129Z,995.6
2019-02-02T01:40:57.056Z,995.6
2019-02-02T01:42:06.971Z,995.63
2019-02-02T01:43:16.893Z,995.63
2019-02-02T01:44:26.577Z,995.68
2019-02-02T01:45:36.501Z,995.66
2019-02-02T01:46:46.188Z,995.64
2019-02-02T01:47:55.604Z,995.64
2019-02-02T01:49:05.539Z,995.62
2019-02-02T01:50:15.217Z,995.61
2019-02-02T01:51:25.145Z,995.56
2019-02-02T01:52:34.819Z,995.54
2019-02-02T01:53:44.003Z,995.57
2019-02-02T01:54:53.918Z,995.57
2019-02-02T01:56:03.718Z,995.54
2019-02-02T01:57:13.139Z,995.52
2019-02-02T01:58:23.069Z,995.59
2019-02-02T01:59:32.751Z,995.52
2019-02-02T02:00:42.422Z,995.54
2019-02-02T02:01:52.179Z,995.5
2019-02-02T02:03:01.612Z,995.5
2019-02-02T02:04:11.301Z,995.47
2019-02-02T02:05:21.268Z,995.43
2019-02-02T02:06:31.197Z,995.46
2019-02-02T02:07:40.628Z,995.41
2019-02-02T02:08:50.557Z,995.42
2019-02-02T02:10:00.477Z,995.42
2019-02-02T02:11:10.259Z,995.38
2019-02-02T02:12:19.959Z,995.42
2019-02-02T02:13:29.873Z,995.44
2019-02-02T02:14:39.560Z,995.41
2019-02-02T02:15:49.225Z,995.39
2019-02-02T02:16:58.392Z,995.4
2019-02-02T02:18:08.341Z,995.38
2019-02-02T02:19:18.265Z,995.42
2019-02-02T02:20:28.185Z,995.38
2019-02-02T02:21:37.861Z,995.37
2019-02-02T02:22:47.560Z,995.41
2019-02-02T02:23:57.487Z,995.41
2019-02-02T02:25:07.181Z,995.41
2019-02-02T02:26:16.854Z,995.38
2019-02-02T02:27:26.525Z,995.41
2019-02-02T02:28:36.197Z,995.36
2019-02-02T02:29:46.126Z,995.35
2019-02-02T02:30:56.077Z,995.33
2019-02-02T02:32:06.017Z,995.32
2019-02-02T02:33:15.960Z,995.24
2019-02-02T02:34:26.016Z,995.25
2019-02-02T02:35:35.960Z,995.31
2019-02-02T02:36:45.671Z,995.33
2019-02-02T02:37:55.364Z,995.26
2019-02-02T02:39:05.288Z,995.28
2019-02-02T02:40:15.390Z,995.24
2019-02-02T02:41:25.102Z,995.22
2019-02-02T02:42:34.539Z,995.25
2019-02-02T02:43:44.479Z,995.29
2019-02-02T02:44:54.191Z,995.23
2019-02-02T02:46:03.943Z,995.24
2019-02-02T02:47:13.697Z,995.21
2019-02-02T02:48:23.382Z,995.2
2019-02-02T02:49:33.300Z,995.22
2019-02-02T02:50:43.217Z,995.24
2019-02-02T02:51:52.899Z,995.28
2019-02-02T02:53:02.660Z,995.36
2019-02-02T02:54:12.702Z,995.39
2019-02-02T02:55:22.415Z,995.42
2019-02-02T02:56:31.842Z,995.4
2019-02-02T02:57:41.531Z,995.34
2019-02-02T02:58:50.732Z,995.31
2019-02-02T03:00:00.407Z,995.37
2019-02-02T03:01:10.088Z,995.38
2019-02-02T03:02:19.519Z,995.4
2019-02-02T03:03:29.188Z,995.38
2019-02-02T03:04:38.932Z,995.4
2019-02-02T03:05:48.879Z,995.44
2019-02-02T03:06:58.831Z,995.44
2019-02-02T03:08:08.891Z,995.48
2019-02-02T03:09:18.338Z,995.44
2019-02-02T03:10:27.769Z,995.45
2019-02-02T03:11:37.719Z,995.47
2019-02-02T03:12:47.665Z,995.38
2019-02-02T03:13:57.638Z,995.38
2019-02-02T03:15:07.318Z,995.39
2019-02-02T03:16:17.387Z,995.39
2019-02-02T03:17:27.095Z,995.4
2019-02-02T03:18:36.271Z,995.42
2019-02-02T03:19:46.197Z,995.41
2019-02-02T03:20:55.879Z,995.42
2019-02-02T03:22:05.299Z,995.43
2019-02-02T03:23:15.251Z,995.41
2019-02-02T03:24:24.943Z,995.38
2019-02-02T03:25:34.661Z,995.35
2019-02-02T03:26:44.370Z,995.4
2019-02-02T03:27:54.533Z,995.42
2019-02-02T03:29:04.264Z,995.34
2019-02-02T03:30:14.131Z,995.36
2019-02-02T03:31:23.880Z,995.4
2019-02-02T03:32:33.614Z,995.4
2019-02-02T03:33:43.609Z,995.44
2019-02-02T03:34:53.311Z,995.46
2019-02-02T03:36:03.277Z,995.47
2019-02-02T03:37:13.207Z,995.54
2019-02-02T03:38:22.633Z,995.52
2019-02-02T03:39:32.073Z,995.59
2019-02-02T03:40:42.015Z,995.58
2019-02-02T03:41:51.699Z,995.59
2019-02-02T03:43:01.565Z,995.67
2019-02-02T03:44:10.996Z,995.7
2019-02-02T03:45:20.414Z,995.74
2019-02-02T03:46:30.109Z,995.78
2019-02-02T03:47:39.546Z,995.77
2019-02-02T03:48:49.013Z,995.78
2019-02-02T03:49:58.703Z,995.79
2019-02-02T03:51:08.646Z,995.77
2019-02-02T03:52:18.332Z,995.73
2019-02-02T03:53:28.284Z,995.69
2019-02-02T03:54:41.792Z,995.72
2019-02-02T03:55:51.467Z,995.72
2019-02-02T03:57:01.448Z,995.7
2019-02-02T03:58:11.383Z,995.67
2019-02-02T03:59:20.820Z,995.63
2019-02-02T04:00:30.516Z,995.62
2019-02-02T04:01:39.939Z,995.63
2019-02-02T04:02:49.938Z,995.63
2019-02-02T04:03:59.626Z,995.62
2019-02-02T04:05:09.563Z,995.67
2019-02-02T04:06:18.756Z,995.58
2019-02-02T04:07:28.717Z,995.6
2019-02-02T04:08:38.668Z,995.57
2019-02-02T04:09:48.630Z,995.52
2019-02-02T04:10:58.062Z,995.53
2019-02-02T04:12:08.005Z,995.48
2019-02-02T04:13:17.982Z,995.49
2019-02-02T04:14:27.416Z,995.48
2019-02-02T04:15:36.861Z,995.51
2019-02-02T04:16:46.544Z,995.53
2019-02-02T04:17:55.468Z,995.54
2019-02-02T04:19:05.514Z,995.58
2019-02-02T04:20:14.940Z,995.56
2019-02-02T04:21:24.725Z,995.62
2019-02-02T04:22:35.704Z,995.63
2019-02-02T04:23:45.520Z,995.6
2019-02-02T04:24:54.949Z,995.59
2019-02-02T04:26:04.675Z,995.61
2019-02-02T04:27:14.622Z,995.62
2019-02-02T04:28:24.297Z,995.68
2019-02-02T04:29:34.049Z,995.61
2019-02-02T04:30:43.985Z,995.65
2019-02-02T04:31:53.910Z,995.65
2019-02-02T04:33:03.828Z,995.65
2019-02-02T04:34:13.254Z,995.65
2019-02-02T04:35:23.179Z,995.63
2019-02-02T04:36:32.749Z,995.61
2019-02-02T04:37:42.667Z,995.64
2019-02-02T04:38:52.734Z,995.66
2019-02-02T04:40:02.533Z,995.68
2019-02-02T04:41:12.204Z,995.72
2019-02-02T04:42:21.872Z,995.72
2019-02-02T04:43:31.544Z,995.71
2019-02-02T04:44:41.271Z,995.71
2019-02-02T04:45:50.942Z,995.75
2019-02-02T04:47:00.616Z,995.73
2019-02-02T04:48:09.790Z,995.73
2019-02-02T04:49:19.458Z,995.75
2019-02-02T04:50:29.385Z,995.69
2019-02-02T04:51:38.812Z,995.71
2019-02-02T04:52:48.500Z,995.68
2019-02-02T04:53:58.427Z,995.73
2019-02-02T04:55:07.959Z,995.78
2019-02-02T04:56:17.385Z,995.78
2019-02-02T04:57:26.830Z,995.77
2019-02-02T04:58:36.252Z,995.82
2019-02-02T04:59:46.186Z,995.78
2019-02-02T05:00:55.856Z,995.8
2019-02-02T05:02:05.273Z,995.81
2019-02-02T05:03:15.197Z,995.83
2019-02-02T05:04:25.117Z,995.85
2019-02-02T05:05:34.839Z,995.86
2019-02-02T05:06:44.503Z,995.9
2019-02-02T05:07:54.434Z,995.91
2019-02-02T05:09:03.636Z,995.96
2019-02-02T05:10:13.564Z,995.99
2019-02-02T05:11:23.232Z,995.97
2019-02-02T05:12:32.661Z,996.01
2019-02-02T05:13:42.088Z,995.97
2019-02-02T05:14:51.772Z,995.98
2019-02-02T05:16:01.442Z,995.97
2019-02-02T05:17:11.120Z,995.96
2019-02-02T05:18:21.044Z,995.98
2019-02-02T05:19:30.978Z,995.98
2019-02-02T05:20:40.649Z,995.99
2019-02-02T05:21:50.073Z,996.03
2019-02-02T05:23:00.006Z,996.04
2019-02-02T05:24:09.943Z,996.06
2019-02-02T05:25:19.137Z,996.03
2019-02-02T05:26:29.059Z,996.07
2019-02-02T05:27:38.973Z,996.08
2019-02-02T05:28:48.959Z,996.12
2019-02-02T05:29:58.887Z,996.12
2019-02-02T05:31:08.578Z,996.12
2019-02-02T05:32:17.760Z,996.15
2019-02-02T05:33:27.434Z,996.13
2019-02-02T05:34:37.108Z,996.16
2019-02-02T05:35:47.028Z,996.17
2019-02-02T05:36:56.943Z,996.19
2019-02-02T05:38:06.366Z,996.23
2019-02-02T05:39:15.538Z,996.18
2019-02-02T05:40:25.457Z,996.21
2019-02-02T05:41:35.384Z,996.22
2019-02-02T05:42:45.300Z,996.25
2019-02-02T05:43:54.726Z,996.29
2019-02-02T05:45:03.899Z,996.29
2019-02-02T05:46:13.395Z,996.3
2019-02-02T05:47:22.813Z,996.36
2019-02-02T05:48:32.482Z,996.37
2019-02-02T05:49:42.404Z,996.35
2019-02-02T05:50:54.793Z,996.37
2019-02-02T05:52:04.218Z,996.36
2019-02-02T05:53:13.905Z,996.4
2019-02-02T05:54:23.579Z,996.43
2019-02-02T05:55:32.998Z,996.44
2019-02-02T05:56:42.926Z,996.42
2019-02-02T05:57:52.352Z,996.48
2019-02-02T05:59:01.777Z,996.52
2019-02-02T06:00:11.198Z,996.55
2019-02-02T06:01:21.121Z,996.56
2019-02-02T06:02:32.961Z,996.58
2019-02-02T06:03:42.386Z,996.6
2019-02-02T06:04:52.061Z,996.57
2019-02-02T06:06:02.060Z,996.54
2019-02-02T06:07:12.013Z,996.57
2019-02-02T06:08:21.454Z,996.55
2019-02-02T06:09:30.647Z,996.6
2019-02-02T06:10:40.566Z,996.59
2019-02-02T06:11:50.240Z,996.58
2019-02-02T06:12:59.939Z,996.6
2019-02-02T06:14:09.885Z,996.65
2019-02-02T06:15:19.303Z,996.63
2019-02-02T06:16:31.428Z,996.61
2019-02-02T06:17:41.360Z,996.63
2019-02-02T06:18:50.774Z,996.65
2019-02-02T06:20:00.454Z,996.64
2019-02-02T06:21:10.386Z,996.63
2019-02-02T06:22:19.564Z,996.65
2019-02-02T06:23:29.486Z,996.63
2019-02-02T06:24:39.428Z,996.63
2019-02-02T06:25:49.112Z,996.58
2019-02-02T06:26:58.570Z,996.63
2019-02-02T06:28:07.753Z,996.64
2019-02-02T06:29:16.922Z,996.65
2019-02-02T06:30:26.601Z,996.63
2019-02-02T06:31:36.266Z,996.64
2019-02-02T06:32:46.220Z,996.62
2019-02-02T06:33:55.955Z,996.68
2019-02-02T06:35:05.632Z,996.72
2019-02-02T06:36:15.336Z,996.75
2019-02-02T06:37:25.289Z,996.8
2019-02-02T06:38:35.213Z,996.76
2019-02-02T06:39:44.645Z,996.81
2019-02-02T06:40:54.312Z,996.83
2019-02-02T06:42:04.236Z,996.84
2019-02-02T06:43:14.156Z,996.91
2019-02-02T06:44:23.577Z,996.94
2019-02-02T06:45:33.496Z,996.98
2019-02-02T06:46:43.820Z,997
2019-02-02T06:47:53.633Z,996.98
2019-02-02T06:49:03.641Z,996.96
2019-02-02T06:50:13.326Z,996.93
2019-02-02T06:51:22.760Z,996.85
2019-02-02T06:52:32.192Z,996.88
2019-02-02T06:53:41.895Z,996.88
2019-02-02T06:54:51.589Z,996.88
2019-02-02T06:56:01.272Z,996.88
2019-02-02T06:57:11.191Z,996.86
2019-02-02T06:58:20.865Z,996.9
2019-02-02T06:59:30.791Z,996.92
2019-02-02T07:00:40.479Z,996.93
2019-02-02T07:01:50.147Z,996.96
2019-02-02T07:02:59.821Z,996.97
2019-02-02T07:04:09.738Z,996.98
2019-02-02T07:05:19.660Z,996.96
2019-02-02T07:06:29.593Z,997
2019-02-02T07:07:39.017Z,997.03
2019-02-02T07:08:48.436Z,997.06
2019-02-02T07:09:57.866Z,997.09
2019-02-02T07:11:07.791Z,997.06
2019-02-02T07:12:17.238Z,997.11
2019-02-02T07:13:26.408Z,997.15
2019-02-02T07:14:38.632Z,997.17
2019-02-02T07:15:48.545Z,997.19
2019-02-02T07:16:57.977Z,997.25
2019-02-02T07:18:07.648Z,997.22
2019-02-02T07:19:17.560Z,997.27
2019-02-02T07:20:29.715Z,997.34
2019-02-02T07:21:39.634Z,997.32
2019-02-02T07:22:49.409Z,997.36
2019-02-02T07:23:59.084Z,997.35
2019-02-02T07:25:09.014Z,997.41
2019-02-02T07:26:18.687Z,997.42
2019-02-02T07:27:28.120Z,997.51
2019-02-02T07:28:37.800Z,997.54
2019-02-02T07:29:47.472Z,997.6
2019-02-02T07:30:57.392Z,997.59
2019-02-02T07:32:07.348Z,997.59
2019-02-02T07:33:17.014Z,997.59
2019-02-02T07:34:26.690Z,997.6
2019-02-02T07:35:36.158Z,997.55
2019-02-02T07:36:45.582Z,997.58
2019-02-02T07:37:55.258Z,997.66
2019-02-02T07:39:04.454Z,997.66
2019-02-02T07:40:14.132Z,997.66
2019-02-02T07:41:24.065Z,997.65
2019-02-02T07:42:33.988Z,997.69
2019-02-02T07:43:43.661Z,997.68
2019-02-02T07:44:53.331Z,997.69
2019-02-02T07:46:13.801Z,997.69
2019-02-02T07:47:24.466Z,997.7
2019-02-02T07:48:33.900Z,997.69
2019-02-02T07:49:43.586Z,997.7
2019-02-02T07:50:53.514Z,997.73
2019-02-02T07:52:03.529Z,997.76
2019-02-02T07:53:13.211Z,997.75
2019-02-02T07:54:22.389Z,997.74
2019-02-02T07:55:33.706Z,997.78
2019-02-02T07:56:43.634Z,997.74
2019-02-02T07:57:53.082Z,997.74
2019-02-02T07:59:03.000Z,997.75
2019-02-02T08:00:12.669Z,997.81
2019-02-02T08:01:23.614Z,997.83
2019-02-02T08:02:33.292Z,997.85
2019-02-02T08:03:43.227Z,997.85
2019-02-02T08:04:52.657Z,997.85
2019-02-02T08:06:02.332Z,997.85
2019-02-02T08:07:12.339Z,997.85
2019-02-02T08:08:21.778Z,997.89
2019-02-02T08:09:31.704Z,997.9
2019-02-02T08:10:41.642Z,997.86
2019-02-02T08:11:51.588Z,997.91
2019-02-02T08:13:01.525Z,997.93
2019-02-02T08:14:11.649Z,997.89
2019-02-02T08:15:21.369Z,997.84
2019-02-02T08:16:30.542Z,997.84
2019-02-02T08:17:40.463Z,997.87
2019-02-02T08:18:50.389Z,997.88
2019-02-02T08:20:00.336Z,997.93
2019-02-02T08:21:10.025Z,997.95
2019-02-02T08:22:19.446Z,997.97
2019-02-02T08:23:28.873Z,997.99
2019-02-02T08:24:38.871Z,997.96
2019-02-02T08:25:48.562Z,997.99
2019-02-02T08:26:57.735Z,997.99
2019-02-02T08:28:07.163Z,998.04
2019-02-02T08:29:16.846Z,998.08
2019-02-02T08:30:26.778Z,998.07
2019-02-02T08:31:38.693Z,998.14
2019-02-02T08:32:48.626Z,998.13
2019-02-02T08:33:58.564Z,998.11
2019-02-02T08:35:08.239Z,998.13
2019-02-02T08:36:17.667Z,998.1
2019-02-02T08:37:27.341Z,998.08
2019-02-02T08:38:36.773Z,998.15
2019-02-02T08:39:46.702Z,998.14
2019-02-02T08:40:56.385Z,998.13
2019-02-02T08:42:06.077Z,998.15
2019-02-02T08:43:16.054Z,998.15
2019-02-02T08:44:25.772Z,998.15
2019-02-02T08:45:36.772Z,998.16
2019-02-02T08:46:46.692Z,998.18
2019-02-02T08:47:56.371Z,998.25
2019-02-02T08:49:06.054Z,998.25
2019-02-02T08:50:15.748Z,998.21
2019-02-02T08:51:25.440Z,998.23
2019-02-02T08:52:35.137Z,998.24
2019-02-02T08:53:44.568Z,998.27
2019-02-02T08:54:53.993Z,998.25
2019-02-02T08:56:03.960Z,998.28
2019-02-02T08:57:13.820Z,998.27
2019-02-02T08:58:23.865Z,998.32
2019-02-02T08:59:33.882Z,998.34
2019-02-02T09:00:43.809Z,998.29
2019-02-02T09:02:04.174Z,998.33
2019-02-02T09:03:13.623Z,998.37
2019-02-02T09:04:23.090Z,998.35
2019-02-02T09:05:32.790Z,998.37
2019-02-02T09:06:42.531Z,998.43
2019-02-02T09:07:51.822Z,998.46
2019-02-02T09:09:01.028Z,998.48
2019-02-02T09:10:10.221Z,998.5
2019-02-02T09:11:19.912Z,998.51
2019-02-02T09:12:29.604Z,998.52
2019-02-02T09:13:39.533Z,998.5
2019-02-02T09:14:49.467Z,998.46
2019-02-02T09:15:59.133Z,998.44
2019-02-02T09:17:08.314Z,998.46
2019-02-02T09:18:17.738Z,998.44
2019-02-02T09:19:27.420Z,998.39
2019-02-02T09:20:37.109Z,998.35
2019-02-02T09:21:46.534Z,998.4
2019-02-02T09:23:04.187Z,998.42
2019-02-02T09:24:15.677Z,998.44
2019-02-02T09:25:25.376Z,998.45
2019-02-02T09:26:34.561Z,998.47
2019-02-02T09:27:44.236Z,998.52
2019-02-02T09:28:53.660Z,998.54
2019-02-02T09:30:03.591Z,998.52
2019-02-02T09:31:16.263Z,998.57
2019-02-02T09:32:26.260Z,998.52
2019-02-02T09:33:36.183Z,998.53
2019-02-02T09:34:45.366Z,998.54
2019-02-02T09:35:55.050Z,998.59
2019-02-02T09:37:04.736Z,998.62
2019-02-02T09:38:14.424Z,998.61
2019-02-02T09:39:24.109Z,998.68
2019-02-02T09:40:33.784Z,998.71
2019-02-02T09:41:43.463Z,998.7
2019-02-02T09:42:52.891Z,998.66
2019-02-02T09:44:02.937Z,998.7
2019-02-02T09:45:12.628Z,998.69
2019-02-02T09:46:22.311Z,998.66
2019-02-02T09:47:32.249Z,998.7
2019-02-02T09:48:42.198Z,998.66
2019-02-02T09:49:51.385Z,998.72
2019-02-02T09:51:00.809Z,998.75
2019-02-02T09:52:10.733Z,998.79
2019-02-02T09:53:20.431Z,998.84
2019-02-02T09:54:30.104Z,998.84
2019-02-02T09:55:39.771Z,998.92
2019-02-02T09:56:49.211Z,998.94
2019-02-02T09:57:58.945Z,998.95
2019-02-02T09:59:11.598Z,998.91
2019-02-02T10:00:21.532Z,998.98
2019-02-02T10:01:31.222Z,999.01
2019-02-02T10:02:40.901Z,998.97
2019-02-02T10:03:53.422Z,999
2019-02-02T10:05:02.849Z,999
2019-02-02T10:06:12.542Z,998.96
2019-02-02T10:07:22.460Z,998.97
2019-02-02T10:08:32.141Z,998.96
2019-02-02T10:09:42.066Z,998.96
2019-02-02T10:10:51.496Z,998.99
2019-02-02T10:12:01.501Z,999
2019-02-02T10:13:11.420Z,999.03
2019-02-02T10:14:21.113Z,999.09
2019-02-02T10:15:31.044Z,999.07
2019-02-02T10:16:40.471Z,999.09
2019-02-02T10:17:50.159Z,999.07
2019-02-02T10:19:00.091Z,999.1
2019-02-02T10:20:09.834Z,999.07
2019-02-02T10:21:19.271Z,999.09
2019-02-02T10:22:28.965Z,999.12
2019-02-02T10:23:38.645Z,999.13
2019-02-02T10:24:47.818Z,999.16
2019-02-02T10:25:57.739Z,999.17
2019-02-02T10:27:07.177Z,999.17
2019-02-02T10:28:16.857Z,999.23
2019-02-02T10:29:26.779Z,999.2
2019-02-02T10:30:36.711Z,999.2
2019-02-02T10:31:46.388Z,999.21
2019-02-02T10:32:56.083Z,999.26
2019-02-02T10:34:05.518Z,999.27
2019-02-02T10:35:17.330Z,999.28
2019-02-02T10:36:26.520Z,999.33
2019-02-02T10:37:36.458Z,999.28
2019-02-02T10:38:45.894Z,999.34
2019-02-02T10:39:55.351Z,999.31
2019-02-02T10:41:04.535Z,999.35
2019-02-02T10:42:14.470Z,999.33
2019-02-02T10:43:23.651Z,999.29
2019-02-02T10:44:33.077Z,999.29
2019-02-02T10:45:42.260Z,999.24
2019-02-02T10:46:51.686Z,999.27
2019-02-02T10:48:01.122Z,999.27
2019-02-02T10:49:10.565Z,999.32
2019-02-02T10:50:20.238Z,999.35
2019-02-02T10:51:29.181Z,999.33
2019-02-02T10:52:38.898Z,999.34
2019-02-02T10:53:48.833Z,999.33
2019-02-02T10:54:58.766Z,999.35
2019-02-02T10:56:08.445Z,999.29
2019-02-02T10:57:17.887Z,999.35
2019-02-02T10:58:27.066Z,999.37
2019-02-02T10:59:36.244Z,999.39
2019-02-02T11:00:49.340Z,999.35
2019-02-02T11:01:59.020Z,999.37
2019-02-02T11:03:08.956Z,999.3
2019-02-02T11:04:18.687Z,999.35
2019-02-02T11:05:28.557Z,999.3
2019-02-02T11:06:38.798Z,999.33
2019-02-02T11:07:48.998Z,999.33
2019-02-02T11:09:02.725Z,999.32
2019-02-02T11:10:12.800Z,999.37
2019-02-02T11:11:26.060Z,999.37
2019-02-02T11:12:35.977Z,999.37
2019-02-02T11:13:46.369Z,999.34
2019-02-02T11:14:56.255Z,999.33
2019-02-02T11:16:08.353Z,999.38
2019-02-02T11:17:18.765Z,999.38
2019-02-02T11:18:28.952Z,999.4
2019-02-02T11:19:39.081Z,999.39
2019-02-02T11:20:49.430Z,999.38
2019-02-02T11:21:59.754Z,999.38
2019-02-02T11:23:10.336Z,999.39
2019-02-02T11:24:20.586Z,999.39
2019-02-02T11:25:30.957Z,999.35
2019-02-02T11:26:41.357Z,999.32
2019-02-02T11:27:51.826Z,999.31
2019-02-02T11:29:02.317Z,999.34
2019-02-02T11:30:12.760Z,999.29
2019-02-02T11:31:22.663Z,999.28
2019-02-02T11:32:32.617Z,999.32
2019-02-02T11:33:44.299Z,999.37
2019-02-02T11:34:54.399Z,999.35
2019-02-02T11:36:04.345Z,999.38
2019-02-02T11:37:14.269Z,999.42
2019-02-02T11:38:24.211Z,999.46
2019-02-02T11:39:33.887Z,999.5
2019-02-02T11:40:43.314Z,999.54
2019-02-02T11:41:52.994Z,999.54
2019-02-02T11:43:02.687Z,999.61
2019-02-02T11:44:12.391Z,999.63
2019-02-02T11:45:25.230Z,999.6
2019-02-02T11:46:34.902Z,999.64
2019-02-02T11:47:44.845Z,999.6
2019-02-02T11:48:53.773Z,999.62
2019-02-02T11:50:03.207Z,999.66
2019-02-02T11:51:13.139Z,999.71
2019-02-02T11:52:23.396Z,999.74
2019-02-02T11:53:33.294Z,999.73
2019-02-02T11:54:44.870Z,999.75
2019-02-02T11:55:54.548Z,999.76
2019-02-02T11:57:04.226Z,999.76
2019-02-02T11:58:14.148Z,999.78
2019-02-02T11:59:24.203Z,999.77
2019-02-02T12:00:33.920Z,999.82
2019-02-02T12:01:43.644Z,999.78
2019-02-02T12:02:53.322Z,999.8
2019-02-02T12:04:04.918Z,999.79
2019-02-02T12:05:14.590Z,999.77
2019-02-02T12:06:24.528Z,999.78
2019-02-02T12:07:34.214Z,999.74
2019-02-02T12:08:44.201Z,999.76
2019-02-02T12:09:56.895Z,999.73
2019-02-02T12:11:06.577Z,999.68
2019-02-02T12:12:16.257Z,999.67
2019-02-02T12:13:26.350Z,999.67
2019-02-02T12:14:36.021Z,999.69
2019-02-02T12:15:45.449Z,999.62
2019-02-02T12:16:54.885Z,999.63
2019-02-02T12:18:03.882Z,999.64
2019-02-02T12:19:17.176Z,999.64
2019-02-02T12:20:27.108Z,999.68
2019-02-02T12:21:38.638Z,999.71
2019-02-02T12:22:48.594Z,999.77
2019-02-02T12:23:58.524Z,999.78
2019-02-02T12:25:21.498Z,999.87
2019-02-02T12:26:31.188Z,999.86
2019-02-02T12:27:40.886Z,999.85
2019-02-02T12:28:50.561Z,999.82
2019-02-02T12:30:00.239Z,999.88
2019-02-02T12:31:09.910Z,999.82
2019-02-02T12:32:26.486Z,999.88
2019-02-02T12:33:36.629Z,999.85
2019-02-02T12:34:46.559Z,999.84
2019-02-02T12:35:56.236Z,999.82
2019-02-02T12:37:05.668Z,999.84
2019-02-02T12:38:15.104Z,999.81
2019-02-02T12:39:25.041Z,999.79
2019-02-02T12:40:34.983Z,999.83
2019-02-02T12:41:44.155Z,999.83
2019-02-02T12:42:53.581Z,999.84
2019-02-02T12:44:03.287Z,999.89
2019-02-02T12:45:12.978Z,999.9
2019-02-02T12:46:22.411Z,999.89
2019-02-02T12:47:31.849Z,999.96
2019-02-02T12:48:41.532Z,999.94
2019-02-02T12:49:51.483Z,999.99
2019-02-02T12:51:00.911Z,999.97
2019-02-02T12:52:10.765Z,999.97
2019-02-02T12:53:20.452Z,999.94
2019-02-02T12:54:29.894Z,999.94
2019-02-02T12:55:39.824Z,999.99
2019-02-02T12:56:49.265Z,1000
2019-02-02T12:57:58.943Z,1000.08
2019-02-02T12:59:08.895Z,1000.06
2019-02-02T13:00:18.624Z,1000.09
2019-02-02T13:01:28.381Z,1000.09
2019-02-02T13:02:38.544Z,1000.14
2019-02-02T13:03:48.289Z,1000.1
2019-02-02T13:05:10.618Z,1000.14
2019-02-02T13:06:20.542Z,1000.16
2019-02-02T13:07:30.055Z,1000.23
2019-02-02T13:08:39.728Z,1000.25
2019-02-02T13:09:49.181Z,1000.29
2019-02-02T13:10:58.612Z,1000.26
2019-02-02T13:12:08.786Z,1000.38
2019-02-02T13:13:18.224Z,1000.35
2019-02-02T13:14:27.898Z,1000.31
2019-02-02T13:15:37.582Z,1000.36
2019-02-02T13:16:50.038Z,1000.33
2019-02-02T13:18:02.615Z,1000.35
2019-02-02T13:19:13.980Z,1000.36
2019-02-02T13:20:23.559Z,1000.39
2019-02-02T13:21:33.241Z,1000.39
2019-02-02T13:22:43.200Z,1000.37
2019-02-02T13:23:53.126Z,1000.42
2019-02-02T13:25:02.809Z,1000.43
2019-02-02T13:26:12.790Z,1000.42
2019-02-02T13:27:22.720Z,1000.46
2019-02-02T13:28:32.392Z,1000.44
2019-02-02T13:29:42.323Z,1000.51
2019-02-02T13:30:55.093Z,1000.47
2019-02-02T13:32:04.879Z,1000.47
2019-02-02T13:33:14.812Z,1000.49
2019-02-02T13:34:24.738Z,1000.48
2019-02-02T13:35:34.686Z,1000.45
2019-02-02T13:36:44.388Z,1000.49
2019-02-02T13:37:54.064Z,1000.52
2019-02-02T13:39:03.985Z,1000.54
2019-02-02T13:40:13.663Z,1000.56
2019-02-02T13:41:23.086Z,1000.48
2019-02-02T13:42:33.011Z,1000.52
2019-02-02T13:43:43.095Z,1000.56
2019-02-02T13:44:52.525Z,1000.59
2019-02-02T13:46:01.954Z,1000.58
2019-02-02T13:47:11.398Z,1000.59
2019-02-02T13:48:21.072Z,1000.63
2019-02-02T13:49:30.995Z,1000.65
2019-02-02T13:50:41.005Z,1000.69
2019-02-02T13:51:50.890Z,1000.68
2019-02-02T13:53:00.572Z,1000.71
2019-02-02T13:54:10.266Z,1000.68
2019-02-02T13:55:19.944Z,1000.75
2019-02-02T13:56:29.882Z,1000.73
2019-02-02T13:57:39.314Z,1000.71
2019-02-02T13:58:48.749Z,1000.71
2019-02-02T13:59:58.534Z,1000.77
2019-02-02T14:01:07.720Z,1000.74
2019-02-02T14:02:17.692Z,1000.83
2019-02-02T14:03:27.384Z,1000.83
2019-02-02T14:04:37.310Z,1000.85
2019-02-02T14:05:46.246Z,1000.79
2019-02-02T14:06:55.438Z,1000.86
2019-02-02T14:08:04.626Z,1000.86
2019-02-02T14:09:14.080Z,1000.9
2019-02-02T14:10:23.757Z,1000.92
2019-02-02T14:11:33.428Z,1000.9
2019-02-02T14:12:43.160Z,1000.88
2019-02-02T14:13:52.844Z,1000.96
2019-02-02T14:15:02.383Z,1000.92
2019-02-02T14:16:11.808Z,1000.98
2019-02-02T14:17:21.247Z,1000.99
2019-02-02T14:18:31.174Z,1001.07
2019-02-02T14:19:40.885Z,1001.04
2019-02-02T14:20:50.808Z,1001.02
2019-02-02T14:22:00.248Z,1001.02
2019-02-02T14:23:09.424Z,1001.06
2019-02-02T14:24:19.343Z,1001.08
2019-02-02T14:25:29.080Z,1001.1
2019-02-02T14:26:39.033Z,1001.14
2019-02-02T14:27:48.728Z,1001.13
2019-02-02T14:28:58.415Z,1001.17
2019-02-02T14:30:08.130Z,1001.18
2019-02-02T14:31:17.301Z,1001.11
2019-02-02T14:32:26.989Z,1001.13